createdAt,value
2019-03-16T00:04:01.478Z,99.90
2019-03-16T00:08:09.541Z,99.90
2019-03-16T00:12:18.905Z,99.90
2019-03-16T00:16:25.253Z,99.90
2019-03-16T00:20:31.525Z,99.90
2019-03-16T00:24:38.559Z,99.90
2019-03-16T00:28:44.917Z,99.90
2019-03-16T00:32:51.219Z,99.90
2019-03-16T00:36:57.598Z,99.90
2019-03-16T00:41:05.623Z,99.90
2019-03-16T00:45:12.056Z,99.90
2019-03-16T00:49:19.738Z,99.90
2019-03-16T00:53:28.316Z,99.90
2019-03-16T00:57:37.036Z,99.90
2019-03-16T01:01:44.708Z,99.90
2019-03-16T01:05:51.469Z,99.90
2019-03-16T01:14:06.418Z,99.90
2019-03-16T01:18:12.714Z,99.90
2019-03-16T01:22:22.734Z,99.90
2019-03-16T01:26:29.061Z,99.90
2019-03-16T01:30:41.551Z,99.90
2019-03-16T01:34:48.188Z,99.90
2019-03-16T01:38:54.533Z,99.90
2019-03-16T01:43:01.502Z,99.90
2019-03-16T01:47:09.230Z,99.90
2019-03-16T01:51:15.555Z,99.90
2019-03-16T01:55:22.884Z,99.90
2019-03-16T01:59:29.810Z,99.70
2019-03-16T02:03:36.228Z,99.10
2019-03-16T02:11:50.540Z,98.40
2019-03-16T02:16:10.355Z,98.40
2019-03-16T02:20:06.820Z,97.70
2019-03-16T02:24:13.062Z,97.60
2019-03-16T02:28:21.777Z,97.30
2019-03-16T02:32:27.641Z,96.30
2019-03-16T02:40:40.852Z,95.60
2019-03-16T02:45:08.551Z,95.30
2019-03-16T02:49:14.824Z,95.40
2019-03-16T02:53:25.669Z,98.10
2019-03-16T02:57:39.397Z,96.50
2019-03-16T03:06:23.972Z,95.80
2019-03-16T03:10:30.316Z,96.00
2019-03-16T03:14:38.696Z,95.90
2019-03-16T03:18:49.613Z,95.50
2019-03-16T03:22:54.514Z,95.70
2019-03-16T03:27:22.610Z,95.70
2019-03-16T03:31:29.009Z,95.70
2019-03-16T03:35:41.177Z,96.00
2019-03-16T03:39:47.508Z,96.00
2019-03-16T03:43:53.846Z,96.10
2019-03-16T03:48:05.494Z,96.00
2019-03-16T03:52:11.878Z,96.10
2019-03-16T03:56:18.286Z,97.10
2019-03-16T04:00:24.615Z,96.60
2019-03-16T04:04:53.672Z,96.70
2019-03-16T04:09:00.474Z,96.20
2019-03-16T04:13:10.046Z,97.40
2019-03-16T04:17:22.798Z,96.50
2019-03-16T04:21:30.207Z,96.80
2019-03-16T04:25:38.246Z,96.80
2019-03-16T04:29:44.896Z,97.60
2019-03-16T04:33:53.945Z,97.40
2019-03-16T04:38:03.314Z,98.90
2019-03-16T04:42:12.630Z,98.30
2019-03-16T04:46:19.668Z,98.70
2019-03-16T04:54:34.380Z,98.30
2019-03-16T04:58:40.973Z,99.20
2019-03-16T05:02:50.210Z,99.70
2019-03-16T05:06:56.492Z,99.40
2019-03-16T05:11:03.459Z,99.80
2019-03-16T05:15:09.865Z,99.90
2019-03-16T05:19:16.457Z,99.90
2019-03-16T05:23:24.436Z,99.90
2019-03-16T05:31:38.525Z,99.90
2019-03-16T05:35:44.828Z,99.90
2019-03-16T05:39:53.532Z,99.90
2019-03-16T05:43:59.165Z,99.90
2019-03-16T05:48:05.426Z,99.90
2019-03-16T05:52:11.766Z,99.90
2019-03-16T05:56:21.354Z,99.90
2019-03-16T06:00:28.223Z,99.90
2019-03-16T06:04:34.763Z,99.90
2019-03-16T06:08:42.279Z,99.90
2019-03-16T06:12:48.396Z,99.90
2019-03-16T06:16:54.807Z,99.90
2019-03-16T06:21:01.200Z,99.90
2019-03-16T06:25:08.582Z,99.90
2019-03-16T06:29:18.792Z,99.90
2019-03-16T06:33:25.386Z,99.90
2019-03-16T06:37:36.845Z,99.90
2019-03-16T06:41:46.222Z,99.90
2019-03-16T06:45:54.193Z,99.90
2019-03-16T06:50:00.637Z,99.90
2019-03-16T06:54:06.951Z,99.90
2019-03-16T06:58:14.560Z,99.90
2019-03-16T07:02:20.831Z,99.90
2019-03-16T07:06:28.277Z,99.90
2019-03-16T07:11:14.484Z,99.90
2019-03-16T07:15:21.005Z,99.90
2019-03-16T07:19:28.713Z,99.90
2019-03-16T07:23:35.194Z,99.90
2019-03-16T07:27:43.129Z,99.90
2019-03-16T07:31:49.545Z,99.90
2019-03-16T07:36:17.088Z,99.90
2019-03-16T07:40:24.428Z,99.90
2019-03-16T07:44:30.824Z,99.90
2019-03-16T07:48:38.865Z,99.90
2019-03-16T07:52:45.188Z,99.90
2019-03-16T07:56:51.615Z,99.90
2019-03-16T08:05:43.959Z,99.90
2019-03-16T08:09:50.252Z,99.90
2019-03-16T08:18:07.832Z,99.90
2019-03-16T08:26:23.444Z,99.90
2019-03-16T08:30:30.962Z,99.90
2019-03-16T08:34:39.527Z,99.90
2019-03-16T08:38:46.967Z,99.90
2019-03-16T08:42:54.631Z,99.90
2019-03-16T08:47:23.027Z,99.90
2019-03-16T08:51:29.746Z,99.90
2019-03-16T08:55:36.106Z,99.90
2019-03-16T08:59:42.381Z,99.90
2019-03-16T09:03:49.235Z,99.90
2019-03-16T09:07:56.297Z,99.90
2019-03-16T09:12:02.685Z,99.90
2019-03-16T09:16:08.979Z,99.90
2019-03-16T09:20:18.421Z,99.90
2019-03-16T09:24:24.278Z,99.90
2019-03-16T09:28:30.703Z,99.90
2019-03-16T09:32:38.753Z,99.90
2019-03-16T09:36:45.891Z,99.90
2019-03-16T09:40:53.676Z,99.90
2019-03-16T09:45:01.305Z,99.90
2019-03-16T09:49:09.361Z,99.90
2019-03-16T09:53:16.164Z,99.90
2019-03-16T09:57:25.270Z,99.60
2019-03-16T10:01:31.680Z,99.50
2019-03-16T10:05:38.128Z,99.00
2019-03-16T10:09:47.980Z,99.50
2019-03-16T10:13:53.630Z,98.70
2019-03-16T10:18:00.207Z,99.00
2019-03-16T10:26:14.587Z,99.10
2019-03-16T10:30:20.927Z,99.00
2019-03-16T10:34:29.105Z,99.70
2019-03-16T10:38:38.388Z,99.90
2019-03-16T10:42:45.426Z,99.40
2019-03-16T10:46:56.383Z,99.40
2019-03-16T10:51:03.064Z,99.50
2019-03-16T10:55:09.844Z,99.90
2019-03-16T10:59:16.987Z,99.40
2019-03-16T11:03:23.343Z,99.60
2019-03-16T11:07:29.717Z,99.40
2019-03-16T11:11:57.026Z,99.30
2019-03-16T11:16:03.816Z,98.90
2019-03-16T11:20:10.157Z,98.80
2019-03-16T11:24:16.243Z,99.50
2019-03-16T11:28:22.559Z,97.90
2019-03-16T11:33:10.946Z,98.40
2019-03-16T11:37:18.268Z,97.80
2019-03-16T11:41:24.638Z,97.50
2019-03-16T11:45:51.478Z,97.70
2019-03-16T11:49:58.446Z,97.00
2019-03-16T11:54:05.480Z,96.40
2019-03-16T11:58:11.396Z,96.60
2019-03-16T12:02:17.762Z,96.40
2019-03-16T12:06:25.013Z,96.70
2019-03-16T12:10:59.485Z,96.50
2019-03-16T12:15:06.283Z,94.90
2019-03-16T12:19:15.777Z,94.70
2019-03-16T12:23:22.188Z,94.50
2019-03-16T12:27:28.782Z,94.10
2019-03-16T12:31:38.848Z,94.80
2019-03-16T12:35:48.924Z,94.80
2019-03-16T12:39:58.687Z,94.60
2019-03-16T12:48:47.023Z,93.70
2019-03-16T12:52:55.070Z,93.90
2019-03-16T12:57:01.814Z,93.20
2019-03-16T13:01:09.257Z,93.40
2019-03-16T13:05:18.459Z,94.20
2019-03-16T13:09:28.364Z,94.00
2019-03-16T13:13:34.832Z,93.50
2019-03-16T13:17:41.678Z,93.50
2019-03-16T13:21:49.717Z,94.70
2019-03-16T13:25:56.329Z,94.10
2019-03-16T13:30:03.126Z,93.90
2019-03-16T13:34:10.713Z,93.40
2019-03-16T13:38:18.656Z,93.00
2019-03-16T13:42:25.601Z,92.20
2019-03-16T13:46:35.177Z,92.50
2019-03-16T13:50:41.875Z,92.30
2019-03-16T13:54:49.586Z,92.20
2019-03-16T13:59:17.002Z,93.50
2019-03-16T14:03:23.885Z,93.50
2019-03-16T14:07:31.580Z,93.20
2019-03-16T14:11:37.971Z,92.30
2019-03-16T14:15:46.501Z,92.50
2019-03-16T14:19:53.684Z,93.60
2019-03-16T14:24:00.155Z,94.30
2019-03-16T14:28:09.677Z,94.80
2019-03-16T14:32:16.497Z,97.70
2019-03-16T14:36:24.242Z,98.50
2019-03-16T14:40:30.710Z,98.90
2019-03-16T14:44:38.844Z,99.20
2019-03-16T14:48:45.830Z,98.20
2019-03-16T14:52:56.169Z,98.60
2019-03-16T14:57:02.729Z,98.70
2019-03-16T15:01:10.384Z,97.50
2019-03-16T15:05:17.043Z,98.50
2019-03-16T15:09:27.646Z,98.20
2019-03-16T15:13:34.437Z,97.70
2019-03-16T15:17:41.559Z,97.80
2019-03-16T15:21:49.946Z,98.00
2019-03-16T15:25:56.786Z,98.50
2019-03-16T15:30:05.396Z,99.90
2019-03-16T15:38:20.704Z,99.90
2019-03-16T15:42:29.261Z,99.90
2019-03-16T15:46:39.013Z,99.90
2019-03-16T15:50:45.353Z,99.90
2019-03-16T15:54:54.710Z,99.90
2019-03-16T15:59:01.899Z,99.90
2019-03-16T16:03:09.396Z,99.90
2019-03-16T16:07:16.823Z,99.90
2019-03-16T16:11:23.285Z,99.70
2019-03-16T16:15:29.773Z,99.60
2019-03-16T16:19:56.731Z,99.50
2019-03-16T16:24:03.286Z,99.80
2019-03-16T16:32:20.851Z,99.50
2019-03-16T16:36:27.386Z,99.00
2019-03-16T16:40:37.003Z,98.60
2019-03-16T16:44:43.343Z,98.50
2019-03-16T16:48:50.848Z,97.30
2019-03-16T16:52:56.480Z,97.00
2019-03-16T16:57:02.950Z,96.70
2019-03-16T17:01:10.787Z,96.40
2019-03-16T17:05:19.409Z,96.60
2019-03-16T17:09:25.975Z,96.70
2019-03-16T17:13:32.535Z,96.80
2019-03-16T17:17:38.860Z,96.40
2019-03-16T17:21:45.212Z,96.00
2019-03-16T17:25:51.925Z,96.70
2019-03-16T17:29:58.313Z,96.40
2019-03-16T17:34:06.387Z,96.20
2019-03-16T17:38:13.828Z,96.30
2019-03-16T17:42:20.106Z,96.40
2019-03-16T17:46:47.512Z,96.10
2019-03-16T17:50:55.352Z,95.60
2019-03-16T17:59:08.671Z,96.10
2019-03-16T18:03:15.824Z,95.80
2019-03-16T18:07:43.343Z,96.30
2019-03-16T18:11:49.928Z,96.10
2019-03-16T18:15:57.249Z,95.40
2019-03-16T18:20:04.916Z,96.10
2019-03-16T18:24:11.419Z,96.10
2019-03-16T18:28:19.820Z,96.40
2019-03-16T18:32:47.450Z,96.70
2019-03-16T18:36:55.884Z,96.70
2019-03-16T18:41:01.838Z,96.50
2019-03-16T18:45:11.879Z,96.40
2019-03-16T18:49:20.946Z,96.50
2019-03-16T18:53:31.118Z,96.70
2019-03-16T18:57:39.193Z,96.50
2019-03-16T19:01:45.791Z,96.70
2019-03-16T19:05:52.201Z,96.60
2019-03-16T19:10:00.366Z,96.40
2019-03-16T19:14:06.690Z,96.60
2019-03-16T19:18:13.573Z,96.60
2019-03-16T19:22:20.387Z,96.80
2019-03-16T19:26:30.175Z,96.60
2019-03-16T19:30:38.159Z,97.20
2019-03-16T19:34:45.413Z,97.50
2019-03-16T19:38:53.546Z,97.10
2019-03-16T19:43:00.244Z,97.20
2019-03-16T19:47:26.033Z,97.40
2019-03-16T19:51:33.428Z,97.20
2019-03-16T19:55:42.323Z,97.60
2019-03-16T19:59:49.226Z,97.20
2019-03-16T20:03:55.990Z,97.40
2019-03-16T20:08:02.826Z,97.00
2019-03-16T20:12:10.395Z,97.40
2019-03-16T20:16:16.845Z,97.80
2019-03-16T20:20:23.235Z,97.60
2019-03-16T20:24:30.316Z,97.50
2019-03-16T20:28:39.468Z,97.60
2019-03-16T20:32:43.794Z,97.90
2019-03-16T20:36:50.191Z,98.10
2019-03-16T20:41:00.138Z,97.40
2019-03-16T20:45:06.984Z,97.50
2019-03-16T20:49:13.350Z,97.50
2019-03-16T20:53:19.930Z,97.50
2019-03-16T20:57:29.254Z,97.50
2019-03-16T21:01:38.277Z,97.40
2019-03-16T21:05:44.623Z,97.50
2019-03-16T21:09:50.968Z,98.00
2019-03-16T21:13:57.365Z,97.90
2019-03-16T21:18:03.778Z,98.10
2019-03-16T21:22:09.923Z,97.90
2019-03-16T21:26:18.898Z,98.40
2019-03-16T21:30:28.854Z,98.10
2019-03-16T21:34:34.498Z,97.40
2019-03-16T21:38:43.763Z,98.00
2019-03-16T21:42:52.057Z,97.20
2019-03-16T21:46:58.920Z,98.30
2019-03-16T21:51:09.070Z,97.80
2019-03-16T21:55:15.673Z,98.60
2019-03-16T21:59:22.518Z,98.70
2019-03-16T22:03:41.631Z,99.00
2019-03-16T22:07:39.027Z,99.10
2019-03-16T22:11:45.394Z,98.60
2019-03-16T22:16:11.940Z,98.90
2019-03-16T22:20:19.283Z,98.40
2019-03-16T22:24:27.042Z,98.20
2019-03-16T22:28:34.231Z,98.90
2019-03-16T22:32:40.597Z,98.20
2019-03-16T22:36:47.743Z,98.30
2019-03-16T22:40:54.314Z,98.10
2019-03-16T22:45:04.400Z,98.30
2019-03-16T22:49:10.987Z,98.20
2019-03-16T22:53:17.707Z,98.20
2019-03-16T22:57:24.706Z,98.30
2019-03-16T23:01:33.744Z,98.10
2019-03-16T23:05:41.561Z,97.40
2019-03-16T23:09:48.908Z,97.10
2019-03-16T23:13:55.291Z,97.00
2019-03-16T23:18:02.546Z,97.00
2019-03-16T23:22:10.662Z,97.30
2019-03-16T23:26:19.316Z,97.30
2019-03-16T23:30:26.577Z,97.20
2019-03-16T23:34:36.219Z,97.10
2019-03-16T23:38:44.501Z,97.50
2019-03-16T23:42:52.366Z,98.30
2019-03-16T23:46:58.980Z,98.00
2019-03-16T23:51:05.769Z,97.70
2019-03-16T23:55:12.221Z,97.90
2019-03-16T23:59:21.114Z,98.10
